sensor_id;sensor_type;location;lat;lon;timestamp;temperature;humidity
47338;DHT22;33069;51.970;5.892;2022-12-29T00:01:37;11.20;83.70
47338;DHT22;33069;51.970;5.892;2022-12-29T00:04:03;11.10;84.10
47338;DHT22;33069;51.970;5.892;2022-12-29T00:06:30;11.10;84.00
47338;DHT22;33069;51.970;5.892;2022-12-29T00:08:55;11.10;84.20
47338;DHT22;33069;51.970;5.892;2022-12-29T00:11:24;11.20;84.30
47338;DHT22;33069;51.970;5.892;2022-12-29T00:13:50;11.20;84.20
47338;DHT22;33069;51.970;5.892;2022-12-29T00:16:35;11.00;84.10
47338;DHT22;33069;51.970;5.892;2022-12-29T00:19:03;11.20;84.70
47338;DHT22;33069;51.970;5.892;2022-12-29T00:21:29;11.10;84.20
47338;DHT22;33069;51.970;5.892;2022-12-29T00:24:23;11.00;84.30
47338;DHT22;33069;51.970;5.892;2022-12-29T00:29:48;11.10;84.40
47338;DHT22;33069;51.970;5.892;2022-12-29T00:32:33;11.00;84.50
47338;DHT22;33069;51.970;5.892;2022-12-29T00:38:41;11.10;84.30
47338;DHT22;33069;51.970;5.892;2022-12-29T00:41:27;11.00;84.40
47338;DHT22;33069;51.970;5.892;2022-12-29T00:44:13;11.20;84.20
47338;DHT22;33069;51.970;5.892;2022-12-29T00:46:40;11.00;84.30
47338;DHT22;33069;51.970;5.892;2022-12-29T00:49:09;11.10;84.80
47338;DHT22;33069;51.970;5.892;2022-12-29T00:51:55;11.10;84.20
47338;DHT22;33069;51.970;5.892;2022-12-29T00:54:21;11.30;84.20
47338;DHT22;33069;51.970;5.892;2022-12-29T01:00:16;11.30;84.30
47338;DHT22;33069;51.970;5.892;2022-12-29T01:02:41;11.20;83.50
47338;DHT22;33069;51.970;5.892;2022-12-29T01:05:07;11.20;83.70
47338;DHT22;33069;51.970;5.892;2022-12-29T01:07:33;11.10;84.00
47338;DHT22;33069;51.970;5.892;2022-12-29T01:09:59;11.20;84.30
47338;DHT22;33069;51.970;5.892;2022-12-29T01:12:36;11.10;83.40
47338;DHT22;33069;51.970;5.892;2022-12-29T01:15:12;11.00;83.70
47338;DHT22;33069;51.970;5.892;2022-12-29T01:17:38;11.10;83.70
47338;DHT22;33069;51.970;5.892;2022-12-29T01:20:04;11.10;83.70
47338;DHT22;33069;51.970;5.892;2022-12-29T01:22:30;11.00;83.60
47338;DHT22;33069;51.970;5.892;2022-12-29T01:24:56;11.10;83.80
47338;DHT22;33069;51.970;5.892;2022-12-29T01:27:21;11.20;83.80
47338;DHT22;33069;51.970;5.892;2022-12-29T01:29:47;11.00;83.80
47338;DHT22;33069;51.970;5.892;2022-12-29T01:32:13;11.20;84.10
47338;DHT22;33069;51.970;5.892;2022-12-29T01:34:38;11.00;84.20
47338;DHT22;33069;51.970;5.892;2022-12-29T01:37:04;10.90;84.90
47338;DHT22;33069;51.970;5.892;2022-12-29T01:39:30;11.00;84.80
47338;DHT22;33069;51.970;5.892;2022-12-29T01:41:55;11.00;84.70
47338;DHT22;33069;51.970;5.892;2022-12-29T01:44:47;10.90;85.00
47338;DHT22;33069;51.970;5.892;2022-12-29T01:47:33;10.80;85.30
47338;DHT22;33069;51.970;5.892;2022-12-29T01:50:09;10.70;85.60
47338;DHT22;33069;51.970;5.892;2022-12-29T01:52:40;10.90;85.30
47338;DHT22;33069;51.970;5.892;2022-12-29T01:55:09;10.80;85.30
47338;DHT22;33069;51.970;5.892;2022-12-29T01:57:38;10.90;85.50
47338;DHT22;33069;51.970;5.892;2022-12-29T02:00:09;10.80;85.50
47338;DHT22;33069;51.970;5.892;2022-12-29T02:02:36;11.00;85.50
47338;DHT22;33069;51.970;5.892;2022-12-29T02:05:14;10.90;85.30
47338;DHT22;33069;51.970;5.892;2022-12-29T02:07:42;11.00;85.60
47338;DHT22;33069;51.970;5.892;2022-12-29T02:10:08;10.90;85.50
47338;DHT22;33069;51.970;5.892;2022-12-29T02:12:34;11.00;85.70
47338;DHT22;33069;51.970;5.892;2022-12-29T02:15:02;11.00;85.30
47338;DHT22;33069;51.970;5.892;2022-12-29T02:20:41;11.10;85.00
47338;DHT22;33069;51.970;5.892;2022-12-29T02:23:41;11.30;84.70
47338;DHT22;33069;51.970;5.892;2022-12-29T02:34:50;11.10;84.80
47338;DHT22;33069;51.970;5.892;2022-12-29T02:37:33;11.20;84.60
47338;DHT22;33069;51.970;5.892;2022-12-29T02:40:39;11.30;83.60
47338;DHT22;33069;51.970;5.892;2022-12-29T02:43:39;11.30;83.50
47338;DHT22;33069;51.970;5.892;2022-12-29T02:48:52;11.50;82.30
47338;DHT22;33069;51.970;5.892;2022-12-29T02:51:29;11.40;82.30
47338;DHT22;33069;51.970;5.892;2022-12-29T02:53:57;11.40;82.20
47338;DHT22;33069;51.970;5.892;2022-12-29T02:56:41;11.60;81.30
47338;DHT22;33069;51.970;5.892;2022-12-29T02:59:08;11.50;81.20
47338;DHT22;33069;51.970;5.892;2022-12-29T03:18:56;11.70;79.20
47338;DHT22;33069;51.970;5.892;2022-12-29T03:24:17;11.80;78.50
47338;DHT22;33069;51.970;5.892;2022-12-29T03:26:45;11.70;78.90
47338;DHT22;33069;51.970;5.892;2022-12-29T03:29:13;11.80;78.40
47338;DHT22;33069;51.970;5.892;2022-12-29T03:31:41;11.80;78.20
47338;DHT22;33069;51.970;5.892;2022-12-29T03:34:09;11.70;78.70
47338;DHT22;33069;51.970;5.892;2022-12-29T03:36:58;11.70;79.60
47338;DHT22;33069;51.970;5.892;2022-12-29T03:39:26;11.50;80.00
47338;DHT22;33069;51.970;5.892;2022-12-29T03:42:01;11.60;80.20
47338;DHT22;33069;51.970;5.892;2022-12-29T03:44:33;11.60;80.00
47338;DHT22;33069;51.970;5.892;2022-12-29T03:47:00;11.70;79.80
47338;DHT22;33069;51.970;5.892;2022-12-29T03:49:26;11.70;79.70
47338;DHT22;33069;51.970;5.892;2022-12-29T03:51:51;11.60;79.50
47338;DHT22;33069;51.970;5.892;2022-12-29T03:54:17;11.70;79.20
47338;DHT22;33069;51.970;5.892;2022-12-29T03:56:42;11.60;80.00
47338;DHT22;33069;51.970;5.892;2022-12-29T03:59:08;11.50;80.30
47338;DHT22;33069;51.970;5.892;2022-12-29T04:01:52;11.60;79.90
47338;DHT22;33069;51.970;5.892;2022-12-29T04:04:18;11.70;79.30
47338;DHT22;33069;51.970;5.892;2022-12-29T04:06:44;11.60;79.30
47338;DHT22;33069;51.970;5.892;2022-12-29T04:09:10;11.60;79.70
47338;DHT22;33069;51.970;5.892;2022-12-29T04:11:36;11.60;79.30
47338;DHT22;33069;51.970;5.892;2022-12-29T04:14:02;11.50;79.40
47338;DHT22;33069;51.970;5.892;2022-12-29T04:16:27;11.60;79.20
47338;DHT22;33069;51.970;5.892;2022-12-29T04:18:53;11.60;79.20
47338;DHT22;33069;51.970;5.892;2022-12-29T04:21:19;11.60;79.20
47338;DHT22;33069;51.970;5.892;2022-12-29T04:23:44;11.60;79.00
47338;DHT22;33069;51.970;5.892;2022-12-29T04:26:10;11.60;78.80
47338;DHT22;33069;51.970;5.892;2022-12-29T04:28:37;11.60;79.30
47338;DHT22;33069;51.970;5.892;2022-12-29T04:31:03;11.60;79.10
47338;DHT22;33069;51.970;5.892;2022-12-29T04:33:30;11.50;79.30
47338;DHT22;33069;51.970;5.892;2022-12-29T04:35:55;11.60;79.80
47338;DHT22;33069;51.970;5.892;2022-12-29T04:38:23;11.50;81.40
47338;DHT22;33069;51.970;5.892;2022-12-29T04:40:49;11.30;82.40
47338;DHT22;33069;51.970;5.892;2022-12-29T04:43:16;11.00;82.70
47338;DHT22;33069;51.970;5.892;2022-12-29T04:45:46;11.00;84.00
47338;DHT22;33069;51.970;5.892;2022-12-29T04:48:12;11.00;83.70
47338;DHT22;33069;51.970;5.892;2022-12-29T04:50:38;11.00;84.40
47338;DHT22;33069;51.970;5.892;2022-12-29T04:53:04;10.70;85.30
47338;DHT22;33069;51.970;5.892;2022-12-29T04:55:30;10.50;85.60
47338;DHT22;33069;51.970;5.892;2022-12-29T04:57:55;10.50;84.80
47338;DHT22;33069;51.970;5.892;2022-12-29T05:00:22;10.40;84.60
47338;DHT22;33069;51.970;5.892;2022-12-29T05:02:47;10.50;83.10
47338;DHT22;33069;51.970;5.892;2022-12-29T05:05:16;10.40;82.90
47338;DHT22;33069;51.970;5.892;2022-12-29T05:07:42;10.40;83.10
47338;DHT22;33069;51.970;5.892;2022-12-29T05:10:08;10.40;83.60
47338;DHT22;33069;51.970;5.892;2022-12-29T05:12:35;10.40;84.00
47338;DHT22;33069;51.970;5.892;2022-12-29T05:15:01;10.30;83.90
47338;DHT22;33069;51.970;5.892;2022-12-29T05:17:29;10.40;83.60
47338;DHT22;33069;51.970;5.892;2022-12-29T05:19:55;10.40;83.00
47338;DHT22;33069;51.970;5.892;2022-12-29T05:22:20;10.40;83.30
47338;DHT22;33069;51.970;5.892;2022-12-29T05:24:46;10.40;83.30
47338;DHT22;33069;51.970;5.892;2022-12-29T05:27:12;10.60;83.30
47338;DHT22;33069;51.970;5.892;2022-12-29T05:29:38;10.60;84.20
47338;DHT22;33069;51.970;5.892;2022-12-29T05:32:04;10.40;84.80
47338;DHT22;33069;51.970;5.892;2022-12-29T05:34:29;10.40;85.40
47338;DHT22;33069;51.970;5.892;2022-12-29T05:36:55;10.20;85.20
47338;DHT22;33069;51.970;5.892;2022-12-29T05:39:21;10.10;85.60
47338;DHT22;33069;51.970;5.892;2022-12-29T05:41:47;9.90;85.50
47338;DHT22;33069;51.970;5.892;2022-12-29T05:44:12;9.90;85.80
47338;DHT22;33069;51.970;5.892;2022-12-29T05:46:38;10.00;85.50
47338;DHT22;33069;51.970;5.892;2022-12-29T05:49:04;9.80;85.50
47338;DHT22;33069;51.970;5.892;2022-12-29T05:51:30;9.90;85.40
47338;DHT22;33069;51.970;5.892;2022-12-29T05:53:56;9.70;85.10
47338;DHT22;33069;51.970;5.892;2022-12-29T05:56:22;9.70;84.70
47338;DHT22;33069;51.970;5.892;2022-12-29T05:58:47;9.80;85.10
47338;DHT22;33069;51.970;5.892;2022-12-29T06:01:13;9.80;84.70
47338;DHT22;33069;51.970;5.892;2022-12-29T06:03:39;9.80;84.70
47338;DHT22;33069;51.970;5.892;2022-12-29T06:06:05;9.70;84.70
47338;DHT22;33069;51.970;5.892;2022-12-29T06:08:30;10.00;84.30
47338;DHT22;33069;51.970;5.892;2022-12-29T06:10:56;10.00;83.50
47338;DHT22;33069;51.970;5.892;2022-12-29T06:13:22;10.00;83.20
47338;DHT22;33069;51.970;5.892;2022-12-29T06:15:48;10.00;83.20
47338;DHT22;33069;51.970;5.892;2022-12-29T06:18:14;10.00;82.80
47338;DHT22;33069;51.970;5.892;2022-12-29T06:20:40;10.00;81.80
47338;DHT22;33069;51.970;5.892;2022-12-29T06:23:06;10.10;81.80
47338;DHT22;33069;51.970;5.892;2022-12-29T06:25:32;10.10;81.40
47338;DHT22;33069;51.970;5.892;2022-12-29T06:27:59;10.10;81.20
47338;DHT22;33069;51.970;5.892;2022-12-29T06:30:25;10.00;80.40
47338;DHT22;33069;51.970;5.892;2022-12-29T06:32:51;10.00;80.70
47338;DHT22;33069;51.970;5.892;2022-12-29T06:35:17;10.10;80.50
47338;DHT22;33069;51.970;5.892;2022-12-29T06:37:43;10.00;80.70
47338;DHT22;33069;51.970;5.892;2022-12-29T06:40:09;9.90;80.60
47338;DHT22;33069;51.970;5.892;2022-12-29T06:42:36;10.20;79.00
47338;DHT22;33069;51.970;5.892;2022-12-29T06:45:01;10.20;79.60
47338;DHT22;33069;51.970;5.892;2022-12-29T06:47:27;10.10;79.60
47338;DHT22;33069;51.970;5.892;2022-12-29T06:49:53;10.20;79.00
47338;DHT22;33069;51.970;5.892;2022-12-29T06:52:19;10.00;79.30
47338;DHT22;33069;51.970;5.892;2022-12-29T06:54:44;10.00;79.70
47338;DHT22;33069;51.970;5.892;2022-12-29T06:57:10;10.20;78.80
47338;DHT22;33069;51.970;5.892;2022-12-29T06:59:36;10.30;77.80
47338;DHT22;33069;51.970;5.892;2022-12-29T07:02:01;10.30;78.20
47338;DHT22;33069;51.970;5.892;2022-12-29T07:04:28;10.30;77.80
47338;DHT22;33069;51.970;5.892;2022-12-29T07:06:54;10.30;77.70
47338;DHT22;33069;51.970;5.892;2022-12-29T07:09:20;10.30;77.40
47338;DHT22;33069;51.970;5.892;2022-12-29T07:11:46;10.30;77.00
47338;DHT22;33069;51.970;5.892;2022-12-29T07:14:12;10.30;77.10
47338;DHT22;33069;51.970;5.892;2022-12-29T07:16:38;10.40;76.60
47338;DHT22;33069;51.970;5.892;2022-12-29T07:19:04;10.40;76.60
47338;DHT22;33069;51.970;5.892;2022-12-29T07:21:29;10.50;76.20
47338;DHT22;33069;51.970;5.892;2022-12-29T07:23:55;10.40;76.70
47338;DHT22;33069;51.970;5.892;2022-12-29T07:26:21;10.40;76.50
47338;DHT22;33069;51.970;5.892;2022-12-29T07:28:47;10.50;76.70
47338;DHT22;33069;51.970;5.892;2022-12-29T07:31:19;10.40;76.30
47338;DHT22;33069;51.970;5.892;2022-12-29T07:33:51;10.40;76.70
47338;DHT22;33069;51.970;5.892;2022-12-29T07:36:17;10.50;76.50
47338;DHT22;33069;51.970;5.892;2022-12-29T07:38:43;10.40;76.40
47338;DHT22;33069;51.970;5.892;2022-12-29T07:41:09;10.30;76.50
47338;DHT22;33069;51.970;5.892;2022-12-29T07:43:35;10.50;76.30
47338;DHT22;33069;51.970;5.892;2022-12-29T07:46:00;10.40;76.50
47338;DHT22;33069;51.970;5.892;2022-12-29T07:48:27;10.50;75.80
47338;DHT22;33069;51.970;5.892;2022-12-29T07:50:53;10.50;75.80
47338;DHT22;33069;51.970;5.892;2022-12-29T07:53:19;10.50;75.80
47338;DHT22;33069;51.970;5.892;2022-12-29T07:55:45;10.60;75.80
47338;DHT22;33069;51.970;5.892;2022-12-29T07:58:11;10.60;75.40
47338;DHT22;33069;51.970;5.892;2022-12-29T08:00:37;10.70;74.40
47338;DHT22;33069;51.970;5.892;2022-12-29T08:03:03;10.70;74.90
47338;DHT22;33069;51.970;5.892;2022-12-29T08:05:31;10.70;74.50
47338;DHT22;33069;51.970;5.892;2022-12-29T08:07:57;10.60;74.50
47338;DHT22;33069;51.970;5.892;2022-12-29T08:10:22;10.50;74.40
47338;DHT22;33069;51.970;5.892;2022-12-29T08:12:48;10.40;74.40
47338;DHT22;33069;51.970;5.892;2022-12-29T08:15:14;10.40;74.50
47338;DHT22;33069;51.970;5.892;2022-12-29T08:17:40;10.40;74.60
47338;DHT22;33069;51.970;5.892;2022-12-29T08:20:06;10.40;74.60
47338;DHT22;33069;51.970;5.892;2022-12-29T08:22:50;10.30;74.90
47338;DHT22;33069;51.970;5.892;2022-12-29T08:25:17;10.40;74.40
47338;DHT22;33069;51.970;5.892;2022-12-29T08:27:44;10.40;74.30
47338;DHT22;33069;51.970;5.892;2022-12-29T08:30:10;10.60;73.90
47338;DHT22;33069;51.970;5.892;2022-12-29T08:32:36;10.70;72.80
47338;DHT22;33069;51.970;5.892;2022-12-29T08:35:02;10.50;72.90
47338;DHT22;33069;51.970;5.892;2022-12-29T08:37:28;10.60;73.10
47338;DHT22;33069;51.970;5.892;2022-12-29T08:39:54;10.60;72.50
47338;DHT22;33069;51.970;5.892;2022-12-29T08:42:20;10.60;72.40
47338;DHT22;33069;51.970;5.892;2022-12-29T08:44:45;10.70;72.20
47338;DHT22;33069;51.970;5.892;2022-12-29T08:47:11;10.80;72.40
47338;DHT22;33069;51.970;5.892;2022-12-29T08:49:37;10.80;72.60
47338;DHT22;33069;51.970;5.892;2022-12-29T08:52:03;10.60;73.00
47338;DHT22;33069;51.970;5.892;2022-12-29T08:54:29;10.70;72.80
47338;DHT22;33069;51.970;5.892;2022-12-29T08:56:55;10.70;73.30
47338;DHT22;33069;51.970;5.892;2022-12-29T08:59:21;10.80;73.00
47338;DHT22;33069;51.970;5.892;2022-12-29T09:01:46;10.80;72.80
47338;DHT22;33069;51.970;5.892;2022-12-29T09:04:12;10.70;74.10
47338;DHT22;33069;51.970;5.892;2022-12-29T09:06:37;10.70;74.00
47338;DHT22;33069;51.970;5.892;2022-12-29T09:09:03;10.80;73.60
47338;DHT22;33069;51.970;5.892;2022-12-29T09:11:29;10.60;73.70
47338;DHT22;33069;51.970;5.892;2022-12-29T09:13:55;10.80;73.50
47338;DHT22;33069;51.970;5.892;2022-12-29T09:16:22;10.70;73.90
47338;DHT22;33069;51.970;5.892;2022-12-29T09:18:48;10.70;75.40
47338;DHT22;33069;51.970;5.892;2022-12-29T09:21:14;10.70;76.30
47338;DHT22;33069;51.970;5.892;2022-12-29T09:23:40;10.40;77.20
47338;DHT22;33069;51.970;5.892;2022-12-29T09:26:06;10.30;77.00
47338;DHT22;33069;51.970;5.892;2022-12-29T09:28:34;10.40;77.10
47338;DHT22;33069;51.970;5.892;2022-12-29T09:31:00;10.50;76.40
47338;DHT22;33069;51.970;5.892;2022-12-29T09:33:26;10.40;76.60
47338;DHT22;33069;51.970;5.892;2022-12-29T09:35:57;10.60;75.90
47338;DHT22;33069;51.970;5.892;2022-12-29T09:38:24;10.50;76.20
47338;DHT22;33069;51.970;5.892;2022-12-29T09:40:53;10.50;75.10
47338;DHT22;33069;51.970;5.892;2022-12-29T09:46:56;10.50;75.70
47338;DHT22;33069;51.970;5.892;2022-12-29T09:49:39;10.40;75.60
47338;DHT22;33069;51.970;5.892;2022-12-29T09:52:16;10.50;75.30
47338;DHT22;33069;51.970;5.892;2022-12-29T09:55:00;10.50;75.50
47338;DHT22;33069;51.970;5.892;2022-12-29T09:57:38;10.50;75.90
47338;DHT22;33069;51.970;5.892;2022-12-29T10:00:14;10.50;75.80
47338;DHT22;33069;51.970;5.892;2022-12-29T10:02:52;10.50;76.60
47338;DHT22;33069;51.970;5.892;2022-12-29T10:05:24;10.30;77.90
47338;DHT22;33069;51.970;5.892;2022-12-29T10:08:15;10.10;79.50
47338;DHT22;33069;51.970;5.892;2022-12-29T10:11:33;10.20;80.20
47338;DHT22;33069;51.970;5.892;2022-12-29T10:13:59;10.10;80.70
47338;DHT22;33069;51.970;5.892;2022-12-29T10:24:16;9.80;82.00
47338;DHT22;33069;51.970;5.892;2022-12-29T10:26:43;9.80;82.30
47338;DHT22;33069;51.970;5.892;2022-12-29T10:29:19;9.60;83.20
47338;DHT22;33069;51.970;5.892;2022-12-29T10:31:57;9.60;83.50
47338;DHT22;33069;51.970;5.892;2022-12-29T10:34:31;9.50;83.80
47338;DHT22;33069;51.970;5.892;2022-12-29T10:37:05;9.60;83.80
47338;DHT22;33069;51.970;5.892;2022-12-29T10:39:45;9.70;83.60
47338;DHT22;33069;51.970;5.892;2022-12-29T10:42:27;9.70;83.40
47338;DHT22;33069;51.970;5.892;2022-12-29T10:44:54;9.70;83.70
47338;DHT22;33069;51.970;5.892;2022-12-29T10:47:25;9.70;83.70
47338;DHT22;33069;51.970;5.892;2022-12-29T10:49:52;9.70;83.50
47338;DHT22;33069;51.970;5.892;2022-12-29T10:52:20;9.70;83.30
47338;DHT22;33069;51.970;5.892;2022-12-29T10:54:54;9.80;83.10
47338;DHT22;33069;51.970;5.892;2022-12-29T10:57:36;9.70;84.00
47338;DHT22;33069;51.970;5.892;2022-12-29T11:07:59;9.60;84.50
47338;DHT22;33069;51.970;5.892;2022-12-29T11:10:39;9.60;85.00
47338;DHT22;33069;51.970;5.892;2022-12-29T11:15:43;9.70;84.20
47338;DHT22;33069;51.970;5.892;2022-12-29T11:20:54;9.80;83.80
47338;DHT22;33069;51.970;5.892;2022-12-29T11:28:31;10.00;82.30
47338;DHT22;33069;51.970;5.892;2022-12-29T11:31:03;10.00;81.80
47338;DHT22;33069;51.970;5.892;2022-12-29T11:33:34;10.00;81.70
47338;DHT22;33069;51.970;5.892;2022-12-29T11:36:26;10.10;81.90
47338;DHT22;33069;51.970;5.892;2022-12-29T11:38:53;9.90;83.20
47338;DHT22;33069;51.970;5.892;2022-12-29T11:41:23;10.00;83.20
47338;DHT22;33069;51.970;5.892;2022-12-29T11:43:52;10.00;83.10
47338;DHT22;33069;51.970;5.892;2022-12-29T11:46:28;10.00;83.10
47338;DHT22;33069;51.970;5.892;2022-12-29T11:48:54;10.10;80.70
47338;DHT22;33069;51.970;5.892;2022-12-29T11:51:27;10.20;81.00
47338;DHT22;33069;51.970;5.892;2022-12-29T11:53:57;10.20;81.70
47338;DHT22;33069;51.970;5.892;2022-12-29T11:56:38;10.20;80.80
47338;DHT22;33069;51.970;5.892;2022-12-29T12:01:57;10.20;80.90
47338;DHT22;33069;51.970;5.892;2022-12-29T12:04:27;10.20;80.30
47338;DHT22;33069;51.970;5.892;2022-12-29T12:07:12;10.20;80.70
47338;DHT22;33069;51.970;5.892;2022-12-29T12:10:45;10.20;80.10
47338;DHT22;33069;51.970;5.892;2022-12-29T12:12:48;10.20;80.20
47338;DHT22;33069;51.970;5.892;2022-12-29T12:15:23;10.40;79.20
47338;DHT22;33069;51.970;5.892;2022-12-29T12:20:24;10.30;78.70
47338;DHT22;33069;51.970;5.892;2022-12-29T12:25:43;10.60;77.30
47338;DHT22;33069;51.970;5.892;2022-12-29T12:28:40;10.30;78.50
47338;DHT22;33069;51.970;5.892;2022-12-29T12:31:39;10.50;77.20
47338;DHT22;33069;51.970;5.892;2022-12-29T12:34:13;10.50;77.30
47338;DHT22;33069;51.970;5.892;2022-12-29T12:39:34;10.50;77.40
47338;DHT22;33069;51.970;5.892;2022-12-29T12:52:49;10.80;76.00
47338;DHT22;33069;51.970;5.892;2022-12-29T12:55:44;10.80;76.30
47338;DHT22;33069;51.970;5.892;2022-12-29T13:10:05;10.60;77.80
47338;DHT22;33069;51.970;5.892;2022-12-29T13:17:58;10.50;78.10
47338;DHT22;33069;51.970;5.892;2022-12-29T13:23:49;10.30;78.30
47338;DHT22;33069;51.970;5.892;2022-12-29T13:26:25;10.60;77.70
47338;DHT22;33069;51.970;5.892;2022-12-29T13:31:57;10.40;78.60
47338;DHT22;33069;51.970;5.892;2022-12-29T13:35:10;10.50;77.90
47338;DHT22;33069;51.970;5.892;2022-12-29T13:37:54;10.20;78.60
47338;DHT22;33069;51.970;5.892;2022-12-29T13:43:31;10.30;78.70
47338;DHT22;33069;51.970;5.892;2022-12-29T13:46:09;10.40;78.00
47338;DHT22;33069;51.970;5.892;2022-12-29T13:48:43;10.50;77.70
47338;DHT22;33069;51.970;5.892;2022-12-29T13:51:11;10.60;76.90
47338;DHT22;33069;51.970;5.892;2022-12-29T13:54:00;10.50;76.40
47338;DHT22;33069;51.970;5.892;2022-12-29T14:07:41;10.50;76.90
47338;DHT22;33069;51.970;5.892;2022-12-29T14:10:36;10.30;77.90
47338;DHT22;33069;51.970;5.892;2022-12-29T14:13:12;10.30;78.20
47338;DHT22;33069;51.970;5.892;2022-12-29T14:15:41;10.20;78.10
47338;DHT22;33069;51.970;5.892;2022-12-29T14:18:17;10.20;78.10
47338;DHT22;33069;51.970;5.892;2022-12-29T14:21:17;10.20;78.00
47338;DHT22;33069;51.970;5.892;2022-12-29T14:23:46;10.00;78.70
47338;DHT22;33069;51.970;5.892;2022-12-29T14:30:00;9.80;78.80
47338;DHT22;33069;51.970;5.892;2022-12-29T14:32:01;9.90;78.00
47338;DHT22;33069;51.970;5.892;2022-12-29T14:34:29;9.80;78.30
47338;DHT22;33069;51.970;5.892;2022-12-29T14:37:02;9.90;78.50
47338;DHT22;33069;51.970;5.892;2022-12-29T14:39:41;9.70;78.70
47338;DHT22;33069;51.970;5.892;2022-12-29T14:44:56;9.60;80.20
47338;DHT22;33069;51.970;5.892;2022-12-29T14:49:54;9.30;82.90
47338;DHT22;33069;51.970;5.892;2022-12-29T14:52:23;9.20;82.70
47338;DHT22;33069;51.970;5.892;2022-12-29T14:54:59;9.10;83.40
47338;DHT22;33069;51.970;5.892;2022-12-29T14:57:52;9.10;83.20
47338;DHT22;33069;51.970;5.892;2022-12-29T15:00:26;9.20;83.60
47338;DHT22;33069;51.970;5.892;2022-12-29T15:03:03;9.30;83.80
47338;DHT22;33069;51.970;5.892;2022-12-29T15:05:33;9.20;83.80
47338;DHT22;33069;51.970;5.892;2022-12-29T15:08:00;9.20;83.80
47338;DHT22;33069;51.970;5.892;2022-12-29T15:10:35;9.40;83.40
47338;DHT22;33069;51.970;5.892;2022-12-29T15:13:04;9.40;83.60
47338;DHT22;33069;51.970;5.892;2022-12-29T15:15:37;9.30;83.50
47338;DHT22;33069;51.970;5.892;2022-12-29T15:18:30;9.20;83.70
47338;DHT22;33069;51.970;5.892;2022-12-29T15:21:05;9.20;84.40
47338;DHT22;33069;51.970;5.892;2022-12-29T15:23:33;9.40;84.70
47338;DHT22;33069;51.970;5.892;2022-12-29T15:26:03;9.20;84.90
47338;DHT22;33069;51.970;5.892;2022-12-29T15:28:39;9.10;85.60
47338;DHT22;33069;51.970;5.892;2022-12-29T15:33:40;9.10;85.40
47338;DHT22;33069;51.970;5.892;2022-12-29T15:36:12;9.10;85.50
47338;DHT22;33069;51.970;5.892;2022-12-29T15:38:38;9.30;85.50
47338;DHT22;33069;51.970;5.892;2022-12-29T15:44:16;9.20;84.80
47338;DHT22;33069;51.970;5.892;2022-12-29T15:46:43;9.10;84.20
47338;DHT22;33069;51.970;5.892;2022-12-29T15:49:14;9.20;84.20
47338;DHT22;33069;51.970;5.892;2022-12-29T15:51:40;9.20;83.70
47338;DHT22;33069;51.970;5.892;2022-12-29T15:54:14;9.10;83.70
47338;DHT22;33069;51.970;5.892;2022-12-29T15:56:41;9.30;83.00
47338;DHT22;33069;51.970;5.892;2022-12-29T16:01:48;9.20;82.80
47338;DHT22;33069;51.970;5.892;2022-12-29T16:04:14;9.20;82.60
47338;DHT22;33069;51.970;5.892;2022-12-29T16:09:44;9.20;82.60
47338;DHT22;33069;51.970;5.892;2022-12-29T16:12:20;9.20;82.00
47338;DHT22;33069;51.970;5.892;2022-12-29T16:15:07;9.20;82.40
47338;DHT22;33069;51.970;5.892;2022-12-29T16:17:48;9.30;81.90
47338;DHT22;33069;51.970;5.892;2022-12-29T16:20:20;9.50;81.60
47338;DHT22;33069;51.970;5.892;2022-12-29T16:22:48;9.30;82.10
47338;DHT22;33069;51.970;5.892;2022-12-29T16:27:50;9.30;81.70
47338;DHT22;33069;51.970;5.892;2022-12-29T16:30:21;9.30;81.70
47338;DHT22;33069;51.970;5.892;2022-12-29T16:32:53;9.30;81.50
47338;DHT22;33069;51.970;5.892;2022-12-29T16:35:22;9.30;81.60
47338;DHT22;33069;51.970;5.892;2022-12-29T16:40:37;9.30;81.80
47338;DHT22;33069;51.970;5.892;2022-12-29T16:43:04;9.10;81.60
47338;DHT22;33069;51.970;5.892;2022-12-29T16:50:42;9.00;81.20
47338;DHT22;33069;51.970;5.892;2022-12-29T16:53:59;8.90;81.70
47338;DHT22;33069;51.970;5.892;2022-12-29T16:56:22;8.80;81.70
47338;DHT22;33069;51.970;5.892;2022-12-29T16:59:03;8.90;81.80
47338;DHT22;33069;51.970;5.892;2022-12-29T17:01:30;8.80;81.60
47338;DHT22;33069;51.970;5.892;2022-12-29T17:04:05;8.80;81.60
47338;DHT22;33069;51.970;5.892;2022-12-29T17:06:31;8.90;80.30
47338;DHT22;33069;51.970;5.892;2022-12-29T17:08:57;8.80;80.50
47338;DHT22;33069;51.970;5.892;2022-12-29T17:11:28;9.10;80.00
47338;DHT22;33069;51.970;5.892;2022-12-29T17:16:54;8.70;80.90
47338;DHT22;33069;51.970;5.892;2022-12-29T17:19:32;8.80;80.40
47338;DHT22;33069;51.970;5.892;2022-12-29T17:21:58;8.80;79.80
47338;DHT22;33069;51.970;5.892;2022-12-29T17:24:25;8.70;80.30
47338;DHT22;33069;51.970;5.892;2022-12-29T17:26:56;8.80;80.70
47338;DHT22;33069;51.970;5.892;2022-12-29T17:29:33;8.80;80.10
47338;DHT22;33069;51.970;5.892;2022-12-29T17:32:03;8.80;79.50
47338;DHT22;33069;51.970;5.892;2022-12-29T17:34:29;8.70;79.30
47338;DHT22;33069;51.970;5.892;2022-12-29T17:36:56;8.50;79.50
47338;DHT22;33069;51.970;5.892;2022-12-29T17:39:22;8.70;80.00
47338;DHT22;33069;51.970;5.892;2022-12-29T17:47:43;8.60;79.80
47338;DHT22;33069;51.970;5.892;2022-12-29T17:50:14;8.60;79.20
47338;DHT22;33069;51.970;5.892;2022-12-29T17:52:41;8.60;78.90
47338;DHT22;33069;51.970;5.892;2022-12-29T17:55:15;8.50;79.00
47338;DHT22;33069;51.970;5.892;2022-12-29T17:57:41;8.70;78.40
47338;DHT22;33069;51.970;5.892;2022-12-29T18:00:17;8.60;78.50
47338;DHT22;33069;51.970;5.892;2022-12-29T18:02:43;8.60;78.10
47338;DHT22;33069;51.970;5.892;2022-12-29T18:05:17;8.50;78.70
47338;DHT22;33069;51.970;5.892;2022-12-29T18:07:43;8.60;78.30
47338;DHT22;33069;51.970;5.892;2022-12-29T18:10:09;8.20;79.10
47338;DHT22;33069;51.970;5.892;2022-12-29T18:12:40;8.20;79.10
47338;DHT22;33069;51.970;5.892;2022-12-29T18:15:20;8.00;79.70
47338;DHT22;33069;51.970;5.892;2022-12-29T18:17:46;8.20;79.40
47338;DHT22;33069;51.970;5.892;2022-12-29T18:20:12;8.10;78.80
47338;DHT22;33069;51.970;5.892;2022-12-29T18:22:38;8.20;78.70
47338;DHT22;33069;51.970;5.892;2022-12-29T18:25:24;8.20;78.40
47338;DHT22;33069;51.970;5.892;2022-12-29T18:27:50;8.20;78.80
47338;DHT22;33069;51.970;5.892;2022-12-29T18:30:16;8.30;78.10
47338;DHT22;33069;51.970;5.892;2022-12-29T18:32:43;8.40;77.70
47338;DHT22;33069;51.970;5.892;2022-12-29T18:35:25;8.30;77.60
47338;DHT22;33069;51.970;5.892;2022-12-29T18:37:51;8.40;77.40
47338;DHT22;33069;51.970;5.892;2022-12-29T18:40:16;8.40;77.10
47338;DHT22;33069;51.970;5.892;2022-12-29T18:42:44;8.40;77.50
47338;DHT22;33069;51.970;5.892;2022-12-29T18:45:18;8.30;76.60
47338;DHT22;33069;51.970;5.892;2022-12-29T18:47:44;8.30;77.00
47338;DHT22;33069;51.970;5.892;2022-12-29T18:50:10;8.40;76.70